Time;durP1;ratioP1;P1;durP2;ratioP2;P2;SDS_P1;SDS_P2;PMS_P1;PMS_P2;Temp;Humidity;BMP_temperature;BMP_pressure;BME280_temperature;BME280_humidity;BME280_pressure;Samples;Min_cycle;Max_cycle;Signal;HPM_P1;HPM_P2
2023/08/04 00:00:54;;;;;;;11.30;3.60;;;;;;;16.45;92.02;100711.44;5115601;28;20113;-62
2023/08/04 00:03:21;;;;;;;8.85;3.13;;;;;;;16.39;94.40;100718.38;5091018;28;20043;-61
2023/08/04 00:05:49;;;;;;;10.18;3.20;;;;;;;16.45;94.48;100712.25;5112482;28;20096;-60
2023/08/04 00:08:17;;;;;;;8.23;3.10;;;;;;;16.54;94.08;100712.13;5097963;28;20055;-61
2023/08/04 00:10:44;;;;;;;10.40;3.28;;;;;;;16.78;92.42;100712.03;5116110;28;20051;-62
2023/08/04 00:13:11;;;;;;;7.22;3.10;;;;;;;16.83;91.88;100718.16;5114627;28;20043;-61
2023/08/04 00:15:39;;;;;;;12.43;3.25;;;;;;;17.14;90.44;100714.59;5115673;28;20400;-60
2023/08/04 00:18:06;;;;;;;9.32;3.05;;;;;;;17.01;90.27;100718.63;5097380;28;20528;-63
2023/08/04 00:20:34;;;;;;;9.13;3.60;;;;;;;16.50;93.70;100719.56;5115910;28;20578;-60
2023/08/04 00:23:01;;;;;;;10.85;3.47;;;;;;;16.59;94.06;100718.25;5115672;28;20491;-62
2023/08/04 00:25:28;;;;;;;9.40;3.88;;;;;;;16.51;93.84;100724.75;5115489;28;20047;-61
2023/08/04 00:27:56;;;;;;;8.82;3.58;;;;;;;16.54;95.28;100717.69;5103197;28;20052;-61
2023/08/04 00:30:23;;;;;;;11.43;3.47;;;;;;;16.53;95.21;100724.41;5090502;28;20052;-61
2023/08/04 00:32:51;;;;;;;10.60;3.42;;;;;;;16.48;95.39;100730.22;5095334;28;20554;-63
2023/08/04 00:35:18;;;;;;;11.75;3.67;;;;;;;16.44;95.64;100723.72;5071658;28;20051;-62
2023/08/04 00:37:45;;;;;;;9.23;3.78;;;;;;;16.69;94.95;100720.53;5078344;28;20087;-62
2023/08/04 00:40:13;;;;;;;11.43;3.75;;;;;;;16.67;94.47;100724.81;5094689;28;20063;-62
2023/08/04 00:42:40;;;;;;;10.20;3.80;;;;;;;16.73;94.59;100731.75;5076910;28;20067;-63
2023/08/04 00:45:08;;;;;;;9.07;3.50;;;;;;;16.84;93.10;100725.31;5110344;27;20042;-62
2023/08/04 00:47:38;;;;;;;9.52;3.67;;;;;;;16.36;95.93;100730.22;5135834;27;20062;-62
2023/08/04 00:50:07;;;;;;;11.98;3.92;;;;;;;16.28;97.32;100732.00;5124195;27;20066;-60
2023/08/04 00:52:36;;;;;;;7.82;3.47;;;;;;;16.36;98.16;100741.34;5114673;28;20047;-61
2023/08/04 00:55:05;;;;;;;9.65;3.83;;;;;;;16.47;97.28;100732.22;5088723;27;20113;-62
2023/08/04 00:57:32;;;;;;;8.82;3.53;;;;;;;16.52;96.89;100729.16;5114648;28;20063;-62
2023/08/04 01:00:00;;;;;;;10.23;4.20;;;;;;;16.48;96.93;100741.34;5113125;28;20044;-63
2023/08/04 01:02:27;;;;;;;7.47;3.17;;;;;;;16.43;97.23;100731.25;5079838;28;20498;-61
2023/08/04 01:04:55;;;;;;;8.38;3.60;;;;;;;16.58;97.21;100732.53;5095168;28;20047;-60
2023/08/04 01:07:28;;;;;;;11.10;4.25;;;;;;;16.29;97.89;100730.00;5093323;28;20047;-63
2023/08/04 01:10:41;;;;;;;9.65;4.07;;;;;;;16.39;98.78;100729.50;5107297;28;20047;-61
2023/08/04 01:13:10;;;;;;;9.50;3.47;;;;;;;16.43;98.86;100731.25;5028761;28;20060;-62
2023/08/04 01:15:38;;;;;;;8.13;3.33;;;;;;;16.52;97.52;100733.91;5031312;28;20045;-62
2023/08/04 01:18:05;;;;;;;10.85;3.67;;;;;;;16.25;98.95;100731.88;5048242;28;20060;-61
2023/08/04 01:20:33;;;;;;;8.23;3.78;;;;;;;16.27;99.23;100729.53;5094022;28;20419;-62
2023/08/04 01:23:00;;;;;;;8.60;3.80;;;;;;;16.32;99.82;100735.66;5059060;28;20055;-63
2023/08/04 01:25:33;;;;;;;11.35;4.28;;;;;;;16.10;100.00;100736.19;5105743;28;20035;-61
2023/08/04 01:28:05;;;;;;;10.88;4.13;;;;;;;16.18;100.00;100734.44;5113157;28;20062;-60
2023/08/04 01:30:32;;;;;;;8.38;4.13;;;;;;;16.14;100.00;100739.91;5114063;28;20047;-61
2023/08/04 01:33:00;;;;;;;9.35;3.80;;;;;;;16.24;100.00;100744.97;5114207;28;20051;-61
2023/08/04 01:35:29;;;;;;;10.38;3.97;;;;;;;16.19;100.00;100736.88;5130825;27;20054;-61
2023/08/04 01:37:56;;;;;;;10.70;4.07;;;;;;;16.40;99.67;100734.75;5126448;27;20054;-61
2023/08/04 01:40:24;;;;;;;7.00;3.53;;;;;;;16.30;100.00;100731.66;5095804;28;20052;-61
2023/08/04 01:42:51;;;;;;;8.77;3.80;;;;;;;16.35;99.46;100743.31;5114246;28;20048;-61
2023/08/04 01:45:19;;;;;;;6.22;3.67;;;;;;;16.27;100.00;100738.69;5113528;28;20065;-60
2023/08/04 01:47:48;;;;;;;10.57;4.13;;;;;;;16.26;100.00;100741.84;5096279;28;20054;-59
2023/08/04 01:50:15;;;;;;;11.88;3.83;;;;;;;16.12;100.00;100742.22;5117150;28;20050;-60
2023/08/04 01:52:43;;;;;;;9.20;3.67;;;;;;;16.25;100.00;100741.00;5134615;27;20061;-63
2023/08/04 01:55:10;;;;;;;9.38;4.18;;;;;;;16.28;100.00;100745.06;5107948;28;20442;-60
2023/08/04 01:57:38;;;;;;;11.77;3.85;;;;;;;16.63;99.39;100746.97;5095705;28;20494;-60
2023/08/04 02:00:07;;;;;;;13.77;4.70;;;;;;;16.51;99.30;100747.00;5094507;28;20071;-60
2023/08/04 02:02:38;;;;;;;12.60;4.32;;;;;;;16.63;97.38;100752.53;5113899;28;20048;-60
2023/08/04 02:05:06;;;;;;;8.65;3.47;;;;;;;16.53;98.43;100754.97;5112757;28;20048;-61
2023/08/04 02:07:33;;;;;;;17.58;4.15;;;;;;;16.71;99.25;100759.94;5113092;28;20052;-60
2023/08/04 02:10:02;;;;;;;10.95;4.03;;;;;;;16.56;98.39;100760.66;5112505;28;20432;-60
2023/08/04 02:12:29;;;;;;;12.05;4.25;;;;;;;16.49;97.98;100760.44;5095157;28;20063;-61
2023/08/04 02:14:56;;;;;;;10.20;4.00;;;;;;;16.35;99.56;100753.63;5113699;28;20676;-60
2023/08/04 02:17:24;;;;;;;18.90;4.72;;;;;;;16.32;100.00;100762.69;5095205;28;20052;-60
2023/08/04 02:19:52;;;;;;;12.77;4.95;;;;;;;16.12;100.00;100770.00;5114091;28;20043;-60
2023/08/04 02:22:19;;;;;;;8.85;4.35;;;;;;;16.20;100.00;100765.47;5112924;28;20561;-60
2023/08/04 02:24:47;;;;;;;12.07;5.15;;;;;;;15.98;100.00;100755.66;5113881;28;20051;-61
2023/08/04 02:27:14;;;;;;;14.70;4.72;;;;;;;15.88;100.00;100769.19;5117756;28;20542;-61
2023/08/04 02:29:41;;;;;;;10.43;4.80;;;;;;;16.01;100.00;100760.50;5099631;28;20580;-61
2023/08/04 02:32:11;;;;;;;12.43;4.70;;;;;;;16.07;100.00;100756.34;5118020;28;20047;-62
2023/08/04 02:34:38;;;;;;;12.55;5.45;;;;;;;16.13;100.00;100759.69;5121147;27;20169;-62
2023/08/04 02:37:05;;;;;;;13.40;5.32;;;;;;;16.31;100.00;100763.81;5138256;27;20039;-62
2023/08/04 02:39:34;;;;;;;8.20;4.70;;;;;;;16.62;100.00;100764.81;5096291;28;20052;-60
2023/08/04 02:42:02;;;;;;;12.77;4.75;;;;;;;16.59;100.00;100768.31;5084574;28;20055;-60
2023/08/04 02:44:29;;;;;;;9.75;4.75;;;;;;;16.62;100.00;100767.59;5127834;27;20059;-61
2023/08/04 02:46:58;;;;;;;14.10;5.60;;;;;;;16.51;100.00;100771.25;5117442;27;20051;-60
2023/08/04 02:49:25;;;;;;;11.15;4.93;;;;;;;16.74;98.71;100770.34;5082173;28;20050;-61
2023/08/04 02:51:52;;;;;;;11.82;5.13;;;;;;;16.57;100.00;100780.94;5124770;27;20054;-62
2023/08/04 02:54:20;;;;;;;11.25;4.80;;;;;;;16.62;100.00;100775.94;5101166;27;20048;-61
2023/08/04 02:56:47;;;;;;;9.60;5.13;;;;;;;16.73;99.74;100777.06;5087449;28;20059;-59
2023/08/04 02:59:14;;;;;;;12.85;5.07;;;;;;;16.60;100.00;100781.03;5098808;28;20415;-60
2023/08/04 03:01:42;;;;;;;16.00;5.38;;;;;;;16.78;99.44;100770.44;5098642;28;20125;-61
2023/08/04 03:04:12;;;;;;;11.32;4.78;;;;;;;16.28;100.00;100775.66;5098526;28;20051;-61
2023/08/04 03:06:39;;;;;;;12.57;5.60;;;;;;;16.31;100.00;100774.94;5115438;28;20048;-59
2023/08/04 03:09:07;;;;;;;12.80;5.63;;;;;;;16.17;100.00;100780.06;5117069;28;20078;-60
2023/08/04 03:11:34;;;;;;;11.15;5.47;;;;;;;16.28;100.00;100778.44;5098263;28;20454;-60
2023/08/04 03:14:02;;;;;;;11.55;5.60;;;;;;;16.42;100.00;100776.88;5116482;28;20066;-60
2023/08/04 03:16:30;;;;;;;10.07;5.50;;;;;;;16.50;100.00;100784.31;5115197;28;20074;-61
2023/08/04 03:18:57;;;;;;;11.57;5.57;;;;;;;16.57;100.00;100784.53;5116380;28;20054;-59
2023/08/04 03:21:25;;;;;;;14.48;5.95;;;;;;;16.62;100.00;100789.03;5117040;28;20047;-61
2023/08/04 03:23:52;;;;;;;13.07;5.28;;;;;;;16.41;100.00;100786.38;5097772;28;20052;-61
2023/08/04 03:26:19;;;;;;;13.65;5.70;;;;;;;16.43;100.00;100788.81;5115451;28;20047;-60
2023/08/04 03:28:47;;;;;;;16.08;6.03;;;;;;;16.63;100.00;100794.25;5113263;28;20058;-60
2023/08/04 03:31:14;;;;;;;14.32;6.03;;;;;;;16.76;100.00;100795.03;5116448;28;20521;-61
2023/08/04 03:33:42;;;;;;;10.95;5.05;;;;;;;16.75;99.66;100801.75;5115183;28;20052;-59
2023/08/04 03:36:09;;;;;;;15.07;5.45;;;;;;;16.62;100.00;100808.50;5127937;27;20047;-61
2023/08/04 03:38:36;;;;;;;13.95;5.63;;;;;;;16.54;100.00;100803.91;5093267;28;20056;-61
2023/08/04 03:41:04;;;;;;;12.75;6.20;;;;;;;16.80;100.00;100812.63;5115481;28;20047;-62
2023/08/04 03:43:31;;;;;;;13.85;5.88;;;;;;;16.57;100.00;100808.75;5116280;28;20067;-60
2023/08/04 03:45:58;;;;;;;12.88;6.00;;;;;;;16.66;100.00;100807.47;5130466;27;20122;-61
2023/08/04 03:48:26;;;;;;;13.43;6.07;;;;;;;16.75;100.00;100815.66;5123996;27;20052;-59
2023/08/04 03:50:53;;;;;;;14.75;6.03;;;;;;;16.75;100.00;100818.44;5097523;28;20052;-61
2023/08/04 03:53:21;;;;;;;11.95;5.93;;;;;;;16.76;100.00;100823.66;5097687;28;20160;-61
2023/08/04 03:55:48;;;;;;;12.02;5.25;;;;;;;16.59;100.00;100820.34;5115181;28;20049;-61
2023/08/04 03:58:16;;;;;;;13.18;5.10;;;;;;;16.56;100.00;100823.81;5115892;28;20051;-62
2023/08/04 04:00:43;;;;;;;9.68;5.07;;;;;;;16.56;100.00;100823.81;5115708;28;20620;-61
2023/08/04 04:03:10;;;;;;;10.93;5.88;;;;;;;16.64;100.00;100826.47;5098104;28;20510;-60
2023/08/04 04:05:38;;;;;;;14.93;6.50;;;;;;;16.62;100.00;100836.31;5114127;28;20051;-61
2023/08/04 04:08:06;;;;;;;16.92;6.13;;;;;;;16.74;100.00;100837.09;5115814;28;20048;-60
2023/08/04 04:10:33;;;;;;;15.60;6.28;;;;;;;16.73;100.00;100829.13;5114392;28;20047;-58
2023/08/04 04:13:02;;;;;;;11.38;5.82;;;;;;;16.80;99.38;100841.28;5093425;28;20055;-60
2023/08/04 04:15:30;;;;;;;13.80;5.53;;;;;;;17.04;98.77;100843.16;5114039;28;20113;-62
2023/08/04 04:17:57;;;;;;;14.30;6.32;;;;;;;16.89;98.30;100843.91;5115930;28;20466;-61
2023/08/04 04:20:25;;;;;;;11.40;6.18;;;;;;;16.79;99.32;100844.38;5115530;28;20073;-62
2023/08/04 04:22:53;;;;;;;12.32;6.28;;;;;;;16.77;99.46;100846.72;5114805;28;20454;-62
2023/08/04 04:25:20;;;;;;;13.05;6.35;;;;;;;16.80;99.51;100846.03;5115130;28;20044;-60
2023/08/04 04:27:48;;;;;;;11.55;6.70;;;;;;;16.81;99.55;100848.44;5115340;28;20067;-60
2023/08/04 04:30:15;;;;;;;16.05;7.00;;;;;;;16.82;99.49;100849.25;5096963;28;20047;-60
2023/08/04 04:32:42;;;;;;;18.35;7.72;;;;;;;16.65;99.28;100850.31;5115502;28;20055;-61
2023/08/04 04:35:10;;;;;;;14.40;7.55;;;;;;;16.52;100.00;100857.09;5096683;28;20074;-59
2023/08/04 04:37:37;;;;;;;20.23;9.20;;;;;;;16.62;100.00;100858.56;5096721;28;20048;-60
2023/08/04 04:40:05;;;;;;;14.55;8.55;;;;;;;16.66;100.00;100856.72;5115281;28;20595;-60
2023/08/04 04:42:33;;;;;;;15.13;8.43;;;;;;;16.70;100.00;100863.19;5115005;28;20062;-59
2023/08/04 04:45:00;;;;;;;18.48;8.70;;;;;;;16.67;100.00;100859.13;5115174;28;20056;-61
2023/08/04 04:47:28;;;;;;;14.27;8.15;;;;;;;16.76;100.00;100862.59;5114479;28;20070;-61
2023/08/04 04:49:55;;;;;;;16.92;9.05;;;;;;;16.65;100.00;100872.59;5115457;28;20047;-63
2023/08/04 04:52:35;;;;;;;23.00;9.52;;;;;;;16.41;100.00;100871.75;5133668;27;20067;-61
2023/08/04 04:55:04;;;;;;;18.50;9.52;;;;;;;16.35;100.00;100871.19;5109225;28;20059;-61
2023/08/04 04:57:31;;;;;;;18.85;8.95;;;;;;;16.56;100.00;100871.88;5113756;28;20043;-62
2023/08/04 04:59:59;;;;;;;14.50;8.88;;;;;;;16.66;100.00;100865.06;5112964;28;20051;-60
2023/08/04 05:02:27;;;;;;;19.30;10.65;;;;;;;16.61;100.00;100870.84;5114615;28;20044;-61
2023/08/04 05:04:54;;;;;;;18.60;10.07;;;;;;;16.70;100.00;100860.41;5114883;28;20494;-60
2023/08/04 05:07:25;;;;;;;21.45;9.85;;;;;;;16.75;100.00;100879.66;5114246;28;20055;-62
2023/08/04 05:09:55;;;;;;;16.95;10.27;;;;;;;16.89;100.00;100883.66;5090861;28;20110;-61
2023/08/04 05:12:23;;;;;;;22.73;10.40;;;;;;;16.86;100.00;100886.31;5109697;28;20044;-61
2023/08/04 05:14:50;;;;;;;21.88;11.60;;;;;;;16.75;100.00;100885.22;5114934;28;20044;-61
2023/08/04 05:17:17;;;;;;;22.15;10.48;;;;;;;16.56;100.00;100888.56;5112640;28;20530;-61
2023/08/04 05:19:45;;;;;;;22.85;10.35;;;;;;;16.84;100.00;100891.47;5112368;28;20044;-61
2023/08/04 05:22:13;;;;;;;22.85;10.85;;;;;;;16.77;100.00;100883.69;5114317;28;20056;-60
2023/08/04 05:24:40;;;;;;;22.90;10.57;;;;;;;16.92;100.00;100893.28;5096096;28;20060;-61
2023/08/04 05:27:08;;;;;;;23.50;10.73;;;;;;;16.94;100.00;100904.88;5092929;28;20682;-61
2023/08/04 05:29:35;;;;;;;24.77;11.93;;;;;;;16.88;99.22;100905.47;5114482;28;20490;-61
2023/08/04 05:32:03;;;;;;;21.08;11.13;;;;;;;16.93;100.00;100897.69;5113884;28;20052;-60
2023/08/04 05:34:30;;;;;;;17.58;10.82;;;;;;;16.84;100.00;100900.59;5081060;27;20463;-60
2023/08/04 05:36:57;;;;;;;18.35;10.93;;;;;;;16.80;100.00;100899.69;5116173;27;20043;-59
2023/08/04 05:39:25;;;;;;;24.73;11.60;;;;;;;16.84;100.00;100897.03;5115263;27;20042;-61
2023/08/04 05:41:52;;;;;;;17.20;10.77;;;;;;;16.77;100.00;100913.50;5113709;28;20051;-60
2023/08/04 05:44:22;;;;;;;18.08;10.88;;;;;;;16.72;100.00;100908.97;5094687;27;20052;-60
2023/08/04 05:46:49;;;;;;;19.85;11.07;;;;;;;16.76;100.00;100909.06;5116134;28;20043;-60
2023/08/04 05:49:17;;;;;;;21.83;10.57;;;;;;;16.71;100.00;100909.31;5134608;27;20135;-61
2023/08/04 05:51:46;;;;;;;20.10;11.00;;;;;;;16.73;100.00;100904.22;5118603;27;20054;-62
2023/08/04 05:54:14;;;;;;;21.98;11.60;;;;;;;16.97;100.00;100901.38;5111685;28;20074;-62
2023/08/04 05:56:41;;;;;;;27.33;10.60;;;;;;;17.08;99.97;100912.84;5083566;28;20052;-61
2023/08/04 05:59:09;;;;;;;19.45;10.68;;;;;;;16.96;100.00;100910.91;5096194;28;20058;-61
2023/08/04 06:01:36;;;;;;;19.85;11.77;;;;;;;17.09;100.00;100909.69;5082423;28;20075;-61
2023/08/04 06:04:04;;;;;;;21.98;11.90;;;;;;;16.95;100.00;100914.00;5116213;28;20063;-62
2023/08/04 06:06:31;;;;;;;22.52;10.85;;;;;;;16.95;100.00;100919.56;5118430;28;20055;-61
2023/08/04 06:08:59;;;;;;;21.00;10.93;;;;;;;17.24;99.90;100913.72;5100503;28;20044;-61
2023/08/04 06:11:27;;;;;;;17.20;10.45;;;;;;;17.06;99.92;100913.19;5104479;28;20054;-65
2023/08/04 06:13:56;;;;;;;18.77;10.25;;;;;;;17.12;100.00;100922.13;5105431;27;20055;-60
2023/08/04 06:16:24;;;;;;;17.33;10.13;;;;;;;17.26;99.99;100928.91;5117531;28;20047;-62
2023/08/04 06:18:51;;;;;;;18.20;11.57;;;;;;;17.20;99.98;100933.09;5120197;28;20435;-60
2023/08/04 06:21:19;;;;;;;32.30;11.32;;;;;;;17.32;100.00;100941.41;5118725;28;20044;-61
2023/08/04 06:23:46;;;;;;;20.45;11.07;;;;;;;17.39;98.72;100938.03;5107845;28;20043;-62
2023/08/04 06:26:14;;;;;;;20.30;11.70;;;;;;;17.15;100.00;100940.88;5116404;27;20039;-61
2023/08/04 06:28:41;;;;;;;22.55;12.02;;;;;;;17.09;100.00;100940.31;5091523;28;20047;-59
2023/08/04 06:31:08;;;;;;;18.92;11.27;;;;;;;17.21;100.00;100945.84;5116438;27;20082;-61
2023/08/04 06:33:36;;;;;;;21.38;11.77;;;;;;;17.24;100.00;100947.13;5102440;28;20055;-60
2023/08/04 06:36:03;;;;;;;19.42;12.40;;;;;;;17.28;100.00;100940.50;5116645;28;20039;-61
2023/08/04 06:38:31;;;;;;;17.73;11.35;;;;;;;17.39;100.00;100952.75;5089700;28;20150;-62
2023/08/04 06:40:59;;;;;;;22.88;11.88;;;;;;;17.23;99.83;100951.88;5116927;27;20047;-62
2023/08/04 06:43:27;;;;;;;21.60;12.30;;;;;;;17.08;100.00;100966.53;5097282;28;20051;-62
2023/08/04 06:45:54;;;;;;;22.92;11.95;;;;;;;16.99;100.00;100968.63;5116033;28;20043;-62
2023/08/04 06:48:24;;;;;;;21.25;9.90;;;;;;;17.90;100.00;100963.00;5096009;28;20052;-61
2023/08/04 06:50:51;;;;;;;19.42;10.30;;;;;;;17.96;99.89;100958.81;5091864;28;20048;-60
2023/08/04 06:53:19;;;;;;;20.27;8.63;;;;;;;17.96;97.81;100956.00;5096720;28;20066;-60
2023/08/04 06:55:46;;;;;;;17.17;8.98;;;;;;;17.61;95.57;100970.91;5114300;28;20067;-61
2023/08/04 06:58:14;;;;;;;17.48;9.30;;;;;;;16.82;100.00;100978.03;5095051;28;20402;-61
2023/08/04 07:00:41;;;;;;;13.98;8.25;;;;;;;17.58;100.00;100972.44;5114537;28;20055;-63
2023/08/04 07:03:11;;;;;;;13.75;8.35;;;;;;;17.76;97.81;100970.19;5115474;27;20051;-61
2023/08/04 07:05:39;;;;;;;17.90;8.05;;;;;;;18.05;95.03;100980.94;5117109;28;20059;-60
2023/08/04 07:08:07;;;;;;;16.13;8.00;;;;;;;18.05;93.56;100986.50;5111995;28;20039;-61
2023/08/04 07:10:35;;;;;;;19.42;7.63;;;;;;;18.06;94.92;100984.53;5093346;28;20060;-60
2023/08/04 07:13:02;;;;;;;14.35;7.53;;;;;;;17.86;94.99;100989.97;5092463;28;20478;-61
2023/08/04 07:15:31;;;;;;;17.40;7.35;;;;;;;18.12;95.12;100981.13;5113300;28;20105;-62
2023/08/04 07:17:58;;;;;;;22.13;7.85;;;;;;;17.86;95.42;100989.97;5110312;28;20043;-62
2023/08/04 07:20:27;;;;;;;17.45;8.07;;;;;;;18.22;93.40;100988.16;5105034;28;20052;-59
2023/08/04 07:22:55;;;;;;;17.77;8.13;;;;;;;18.27;92.74;100985.13;5111374;28;20035;-61
2023/08/04 07:25:22;;;;;;;20.88;8.23;;;;;;;18.36;92.01;100997.69;5112818;28;20050;-64
2023/08/04 07:27:50;;;;;;;16.10;7.70;;;;;;;18.48;91.55;100988.50;5085873;28;20051;-62
2023/08/04 07:30:17;;;;;;;14.90;6.75;;;;;;;18.51;90.25;100998.91;5114025;27;20054;-63
2023/08/04 07:32:44;;;;;;;14.63;7.45;;;;;;;18.33;90.99;100992.84;5109693;28;20061;-62
2023/08/04 07:35:12;;;;;;;16.73;7.93;;;;;;;18.05;92.88;101002.41;5094829;28;20141;-62
2023/08/04 07:37:40;;;;;;;12.50;7.20;;;;;;;18.02;94.00;101009.53;5116978;27;20047;-62
2023/08/04 07:40:08;;;;;;;17.15;7.18;;;;;;;18.15;93.73;101007.50;5108778;27;20058;-63
2023/08/04 07:42:35;;;;;;;12.73;6.93;;;;;;;18.19;94.22;101002.81;5107418;27;20501;-62
2023/08/04 07:45:03;;;;;;;14.98;7.97;;;;;;;18.14;93.91;101011.44;5110347;27;20050;-63
2023/08/04 07:47:30;;;;;;;14.57;7.50;;;;;;;18.04;95.34;101009.16;5113589;27;20062;-63
2023/08/04 07:49:57;;;;;;;26.65;7.90;;;;;;;18.16;94.45;101009.09;5118244;27;20529;-62
2023/08/04 07:52:25;;;;;;;14.55;7.50;;;;;;;17.89;94.91;101013.53;5096823;28;20050;-62
2023/08/04 07:54:52;;;;;;;17.70;7.57;;;;;;;17.89;96.12;101016.31;5111271;28;20047;-64
2023/08/04 07:57:19;;;;;;;21.65;8.30;;;;;;;17.57;98.25;101014.59;5090159;28;20044;-62
2023/08/04 07:59:47;;;;;;;14.98;6.90;;;;;;;17.84;98.63;101024.94;5111896;27;20060;-63
2023/08/04 08:02:14;;;;;;;16.65;6.70;;;;;;;18.19;97.06;101028.72;5113921;27;20035;-63
2023/08/04 08:04:41;;;;;;;17.90;6.70;;;;;;;18.68;94.78;101021.69;5110928;27;20052;-63
2023/08/04 08:07:09;;;;;;;16.88;6.18;;;;;;;19.03;91.39;101030.94;5111311;27;20039;-62
2023/08/04 08:09:38;;;;;;;14.60;6.40;;;;;;;18.40;92.21;101037.69;5116841;27;20047;-62
2023/08/04 08:12:06;;;;;;;12.43;6.07;;;;;;;18.32;94.01;101035.03;5115679;27;20059;-62
2023/08/04 08:14:34;;;;;;;13.98;6.70;;;;;;;18.25;94.28;101043.22;5108783;28;20047;-63
2023/08/04 08:17:01;;;;;;;15.25;6.28;;;;;;;17.90;96.90;101045.81;5108738;28;20054;-63
2023/08/04 08:19:28;;;;;;;14.07;6.40;;;;;;;18.09;96.86;101042.34;5107045;28;20039;-62
2023/08/04 08:21:56;;;;;;;14.43;6.32;;;;;;;18.11;95.89;101040.03;5109605;28;20553;-62
2023/08/04 08:24:23;;;;;;;15.30;5.68;;;;;;;18.51;93.96;101040.75;5108724;28;20040;-62
2023/08/04 08:26:50;;;;;;;14.10;6.30;;;;;;;18.17;94.17;101044.16;5106467;28;20051;-62
2023/08/04 08:29:18;;;;;;;11.57;5.72;;;;;;;18.35;94.09;101051.06;5108328;28;20070;-62
2023/08/04 08:31:48;;;;;;;;;;;;;;;18.44;93.35;101057.31;5107388;27;20059;-62
2023/08/04 08:34:16;;;;;;;15.57;5.78;;;;;;;18.34;93.38;101046.66;5088198;28;19919;-64
2023/08/04 08:36:44;;;;;;;18.23;5.57;;;;;;;18.36;92.50;101059.06;5110767;28;20055;-65
2023/08/04 08:39:12;;;;;;;11.77;4.95;;;;;;;18.65;92.75;101060.66;5109602;27;20044;-63
2023/08/04 08:41:39;;;;;;;10.60;4.85;;;;;;;18.60;91.45;101056.16;5111218;28;20491;-64
2023/08/04 08:44:07;;;;;;;14.57;4.82;;;;;;;18.77;90.90;101057.78;5093377;28;20044;-63
2023/08/04 08:46:34;;;;;;;11.50;4.50;;;;;;;18.96;88.51;101069.84;5093612;28;20047;-62
2023/08/04 08:49:02;;;;;;;11.75;4.43;;;;;;;19.19;87.80;101061.63;5107560;28;20043;-62
2023/08/04 08:51:29;;;;;;;12.45;4.50;;;;;;;19.02;87.52;101067.59;5105227;28;20662;-63
2023/08/04 08:53:58;;;;;;;11.93;4.88;;;;;;;19.18;86.88;101071.16;5107422;28;20594;-62
2023/08/04 08:56:25;;;;;;;13.50;4.20;;;;;;;19.07;87.04;101068.13;5112331;27;20062;-62
2023/08/04 08:58:55;;;;;;;9.93;4.30;;;;;;;19.02;86.27;101073.97;5104448;28;20043;-62
2023/08/04 09:01:22;;;;;;;11.88;4.82;;;;;;;18.72;87.90;101077.59;5109783;28;20060;-63
2023/08/04 09:03:50;;;;;;;11.55;4.97;;;;;;;18.64;90.00;101081.34;5112060;28;20055;-62
2023/08/04 09:06:17;;;;;;;11.23;4.53;;;;;;;18.86;89.62;101078.75;5110361;28;20609;-62
2023/08/04 09:08:44;;;;;;;12.05;5.15;;;;;;;18.73;87.49;101095.94;5093605;28;20062;-62
2023/08/04 09:11:12;;;;;;;11.88;4.78;;;;;;;18.47;89.91;101093.69;5110893;28;20040;-62
2023/08/04 09:13:42;;;;;;;11.32;5.32;;;;;;;18.40;90.26;101087.91;5108938;27;20047;-63
2023/08/04 09:16:12;;;;;;;9.13;5.15;;;;;;;18.67;89.26;101097.41;5088983;28;20072;-63
2023/08/04 09:18:39;;;;;;;;;;;;;;;18.64;89.15;101093.34;5110101;28;20043;-61
2023/08/04 09:21:13;;;;;;;13.35;5.40;;;;;;;18.91;86.33;101092.47;5108172;28;19923;-62
2023/08/04 09:23:49;;;;;;;11.77;4.78;;;;;;;18.81;85.44;101097.78;5109063;28;20052;-63
2023/08/04 09:26:17;;;;;;;14.35;5.13;;;;;;;19.10;85.38;101100.09;5077302;28;20051;-63
2023/08/04 09:28:46;;;;;;;17.23;5.63;;;;;;;19.17;85.10;101094.69;5112768;28;20058;-62
2023/08/04 09:31:14;;;;;;;14.13;4.88;;;;;;;19.15;83.79;101097.03;5079488;28;20459;-62
2023/08/04 09:33:43;;;;;;;13.02;5.75;;;;;;;19.12;84.64;101094.16;5109291;28;20061;-63
2023/08/04 09:36:13;;;;;;;18.90;6.25;;;;;;;19.44;83.43;101087.41;5113119;28;20054;-63
2023/08/04 09:38:40;;;;;;;17.67;5.30;;;;;;;19.47;82.59;101092.25;5111159;28;20055;-63
2023/08/04 09:41:10;;;;;;;12.50;5.13;;;;;;;19.17;83.62;101094.69;5113050;28;20063;-62
2023/08/04 09:43:44;;;;;;;13.17;4.73;;;;;;;18.99;84.64;101090.66;5099638;28;20048;-65
2023/08/04 09:46:12;;;;;;;15.77;4.88;;;;;;;19.24;83.62;101085.66;5095511;28;20417;-62
2023/08/04 09:48:40;;;;;;;11.88;5.18;;;;;;;19.48;83.11;101083.50;5095466;28;20470;-62
2023/08/04 09:51:11;;;;;;;13.25;4.95;;;;;;;19.69;81.39;101086.78;5108854;28;20051;-63
2023/08/04 09:53:47;;;;;;;9.25;4.22;;;;;;;19.58;81.49;101077.31;5088398;28;20047;-62
2023/08/04 09:56:17;;;;;;;7.47;3.83;;;;;;;19.20;82.23;101080.00;5104563;28;20043;-63
2023/08/04 09:58:46;;;;;;;12.30;3.95;;;;;;;19.18;80.83;101081.56;5109204;28;20047;-63
2023/08/04 10:01:14;;;;;;;9.68;3.95;;;;;;;19.36;79.89;101077.22;5085016;28;20058;-61
2023/08/04 10:03:50;;;;;;;11.18;4.25;;;;;;;19.37;79.23;101082.44;5103079;28;20056;-60
2023/08/04 10:06:18;;;;;;;7.30;3.78;;;;;;;19.78;76.98;101078.16;5105351;28;20036;-61
2023/08/04 10:08:48;;;;;;;9.30;3.53;;;;;;;19.36;76.65;101075.22;5098574;28;20048;-62
2023/08/04 10:11:15;;;;;;;8.27;3.83;;;;;;;19.47;77.82;101078.28;5101393;28;20556;-61
2023/08/04 10:13:44;;;;;;;14.60;3.95;;;;;;;19.80;75.63;101076.63;5097453;28;20305;-60
2023/08/04 10:16:12;;;;;;;12.88;5.30;;;;;;;20.04;74.98;101083.91;5086732;28;20059;-64
2023/08/04 10:18:48;;;;;;;9.80;4.97;;;;;;;20.19;72.61;101071.88;5101645;28;20051;-61
2023/08/04 10:21:17;;;;;;;14.65;4.97;;;;;;;19.97;73.09;101073.41;5102547;28;20048;-59
2023/08/04 10:23:44;;;;;;;13.70;5.20;;;;;;;19.97;74.12;101076.19;5081944;28;20383;-61
2023/08/04 10:26:12;;;;;;;12.18;6.82;;;;;;;20.29;73.20;101073.25;5080516;28;20487;-60
2023/08/04 10:29:01;;;;;;;14.82;8.52;;;;;;;20.15;73.49;101070.97;5077003;28;20055;-63
2023/08/04 10:31:58;;;;;;;18.45;9.73;;;;;;;20.12;73.32;101074.47;5069289;28;20071;-61
2023/08/04 10:34:35;;;;;;;10.98;5.25;;;;;;;20.19;73.20;101073.88;5097838;28;20055;-61
2023/08/04 10:37:10;;;;;;;12.02;4.57;;;;;;;20.10;73.13;101076.88;5096697;28;20066;-59
2023/08/04 10:39:39;;;;;;;9.60;4.22;;;;;;;20.05;73.44;101074.34;5079859;28;20056;-60
2023/08/04 10:42:27;;;;;;;9.27;4.00;;;;;;;20.35;71.34;101058.59;5096464;28;20052;-62
2023/08/04 10:45:07;;;;;;;11.23;4.05;;;;;;;20.47;69.35;101061.22;5098504;28;20055;-61
2023/08/04 10:47:45;;;;;;;8.98;3.42;;;;;;;20.78;67.30;101069.38;5100119;28;20680;-63
2023/08/04 10:50:33;;;;;;;18.13;8.75;;;;;;;20.64;66.79;101063.53;5104151;27;20063;-61
2023/08/04 10:53:00;;;;;;;10.88;5.65;;;;;;;20.67;65.67;101064.78;5081791;27;20055;-61
2023/08/04 10:55:28;;;;;;;9.40;4.38;;;;;;;20.65;62.26;101061.53;5085583;27;20059;-62
2023/08/04 10:57:55;;;;;;;9.65;3.42;;;;;;;20.88;62.62;101062.34;5105588;27;20050;-60
2023/08/04 11:00:22;;;;;;;4.40;2.30;;;;;;;20.94;61.52;101058.88;5109985;28;20040;-61
2023/08/04 11:02:50;;;;;;;9.60;3.50;;;;;;;21.04;62.11;101068.66;5119726;27;20059;-62
2023/08/04 11:05:21;;;;;;;7.90;3.50;;;;;;;21.27;61.72;101063.03;5118839;27;20055;-62
2023/08/04 11:07:49;;;;;;;5.53;3.00;;;;;;;20.82;64.11;101075.03;5112629;28;20066;-62
2023/08/04 11:10:16;;;;;;;6.20;3.03;;;;;;;20.40;64.48;101074.28;5097188;28;20513;-62
2023/08/04 11:12:44;;;;;;;6.70;2.80;;;;;;;20.21;65.52;101091.88;5116345;27;20051;-63
2023/08/04 11:15:11;;;;;;;7.18;3.35;;;;;;;20.08;66.31;101096.78;5118648;27;20062;-62
2023/08/04 11:17:39;;;;;;;7.75;3.72;;;;;;;20.07;67.62;101105.56;5107245;28;20051;-61
2023/08/04 11:20:12;;;;;;;10.18;3.60;;;;;;;19.78;69.33;101101.34;5097730;28;20059;-62